createdAt,value
2024-04-04T00:00:31.441Z,7.88
2024-04-04T00:01:31.428Z,7.88
2024-04-04T00:02:31.446Z,7.87
2024-04-04T00:03:31.436Z,7.85
2024-04-04T00:04:31.424Z,7.83
2024-04-04T00:05:31.376Z,7.80
2024-04-04T00:06:31.364Z,7.78
2024-04-04T00:07:31.389Z,7.74
2024-04-04T00:08:31.342Z,7.70
2024-04-04T00:09:31.351Z,7.66
2024-04-04T00:10:31.325Z,7.62
2024-04-04T00:11:31.297Z,7.58
2024-04-04T00:12:31.283Z,7.56
2024-04-04T00:13:31.273Z,7.55
2024-04-04T00:14:31.294Z,7.55
2024-04-04T00:15:31.252Z,7.57
2024-04-04T00:16:31.269Z,7.58
2024-04-04T00:17:31.236Z,7.59
2024-04-04T00:18:31.217Z,7.60
2024-04-04T00:19:31.202Z,7.61
2024-04-04T00:20:31.222Z,7.62
2024-04-04T00:21:31.184Z,7.61
2024-04-04T00:22:31.159Z,7.60
2024-04-04T00:23:31.163Z,7.57
2024-04-04T00:24:31.138Z,7.54
2024-04-04T00:25:31.132Z,7.53
2024-04-04T00:26:31.164Z,7.52
2024-04-04T00:27:31.097Z,7.53
2024-04-04T00:28:31.091Z,7.53
2024-04-04T00:29:31.083Z,7.54
2024-04-04T00:30:31.066Z,7.56
2024-04-04T00:31:31.062Z,7.58
2024-04-04T00:32:31.111Z,7.62
2024-04-04T00:33:31.042Z,7.65
2024-04-04T00:34:31.012Z,7.68
2024-04-04T00:35:31.031Z,7.70
2024-04-04T00:36:31.000Z,7.71
2024-04-04T00:37:30.974Z,7.72
2024-04-04T00:38:31.000Z,7.72
2024-04-04T00:39:30.957Z,7.74
2024-04-04T00:40:30.938Z,7.74
2024-04-04T00:41:30.926Z,7.76
2024-04-04T00:42:30.906Z,7.78
2024-04-04T00:43:30.896Z,7.80
2024-04-04T00:44:30.897Z,7.82
2024-04-04T00:45:30.874Z,7.83
2024-04-04T00:46:30.857Z,7.83
2024-04-04T00:47:30.864Z,7.82
2024-04-04T00:48:30.834Z,7.81
2024-04-04T00:49:30.870Z,7.80
2024-04-04T00:50:30.811Z,7.79
2024-04-04T00:51:30.833Z,7.78
2024-04-04T00:52:30.800Z,7.77
2024-04-04T00:53:30.779Z,7.75
2024-04-04T00:54:30.757Z,7.75
2024-04-04T00:55:30.779Z,7.76
2024-04-04T00:56:30.728Z,7.75
2024-04-04T00:57:30.719Z,7.74
2024-04-04T00:58:30.707Z,7.73
2024-04-04T00:59:30.702Z,7.72
2024-04-04T01:00:30.708Z,7.72
2024-04-04T01:01:30.679Z,7.71
2024-04-04T01:02:30.654Z,7.71
2024-04-04T01:03:30.646Z,7.70
2024-04-04T01:04:30.638Z,7.70
2024-04-04T01:05:30.631Z,7.71
2024-04-04T01:06:30.650Z,7.70
2024-04-04T01:07:30.608Z,7.69
2024-04-04T01:08:30.576Z,7.69
2024-04-04T01:09:30.575Z,7.68
2024-04-04T01:10:30.567Z,7.67
2024-04-04T01:11:30.553Z,7.67
2024-04-04T01:12:30.579Z,7.67
2024-04-04T01:13:31.423Z,7.65
2024-04-04T01:14:30.511Z,7.62
2024-04-04T01:15:30.492Z,7.59
2024-04-04T01:16:30.478Z,7.57
2024-04-04T01:17:30.575Z,7.57
2024-04-04T01:18:30.486Z,7.58
2024-04-04T01:19:30.452Z,7.59
2024-04-04T01:20:30.422Z,7.58
2024-04-04T01:21:30.419Z,7.57
2024-04-04T01:22:30.397Z,7.57
2024-04-04T01:23:30.432Z,7.59
2024-04-04T01:24:30.379Z,7.62
2024-04-04T01:25:30.369Z,7.65
2024-04-04T01:26:30.358Z,7.68
2024-04-04T01:27:30.337Z,7.70
2024-04-04T01:28:30.371Z,7.70
2024-04-04T01:29:30.362Z,7.71
2024-04-04T01:30:30.307Z,7.72
2024-04-04T01:31:30.291Z,7.72
2024-04-04T01:32:30.357Z,7.72
2024-04-04T01:33:30.272Z,7.71
2024-04-04T01:34:30.252Z,7.69
2024-04-04T01:35:30.301Z,7.66
2024-04-04T01:36:30.264Z,7.62
2024-04-04T01:37:30.213Z,7.58
2024-04-04T01:38:30.198Z,7.53
2024-04-04T01:39:30.208Z,7.47
2024-04-04T01:40:30.239Z,7.42
2024-04-04T01:41:30.178Z,7.37
2024-04-04T01:42:30.149Z,7.34
2024-04-04T01:43:30.149Z,7.31
2024-04-04T01:44:30.118Z,7.28
2024-04-04T01:45:30.116Z,7.25
2024-04-04T01:46:30.126Z,7.21
2024-04-04T01:47:30.126Z,7.17
2024-04-04T01:48:30.077Z,7.14
2024-04-04T01:49:30.059Z,7.11
2024-04-04T01:50:30.040Z,7.08
2024-04-04T01:51:30.031Z,7.06
2024-04-04T01:52:30.035Z,7.05
2024-04-04T01:53:30.009Z,7.05
2024-04-04T01:54:29.979Z,7.05
2024-04-04T01:55:29.983Z,7.06
2024-04-04T01:56:29.965Z,7.07
2024-04-04T01:57:30.005Z,7.08
2024-04-04T01:58:29.948Z,7.07
2024-04-04T01:59:29.928Z,7.06
2024-04-04T02:00:29.922Z,7.05
2024-04-04T02:01:29.905Z,7.03
2024-04-04T02:02:29.900Z,7.01
2024-04-04T02:03:29.905Z,6.99
2024-04-04T02:04:29.878Z,6.97
2024-04-04T02:05:29.862Z,6.96
2024-04-04T02:06:29.846Z,6.96
2024-04-04T02:07:29.826Z,6.97
2024-04-04T02:08:29.832Z,6.99
2024-04-04T02:09:29.839Z,7.01
2024-04-04T02:10:29.781Z,7.01
2024-04-04T02:11:29.771Z,7.01
2024-04-04T02:12:29.758Z,6.99
2024-04-04T02:13:29.762Z,6.98
2024-04-04T02:14:29.762Z,6.98
2024-04-04T02:15:29.742Z,6.99
2024-04-04T02:16:29.734Z,7.01
2024-04-04T02:17:29.741Z,7.02
2024-04-04T02:18:29.711Z,7.04
2024-04-04T02:19:29.701Z,7.04
2024-04-04T02:20:29.719Z,7.04
2024-04-04T02:21:29.656Z,7.04
2024-04-04T02:22:29.651Z,7.06
2024-04-04T02:23:29.628Z,7.09
2024-04-04T02:24:29.626Z,7.12
2024-04-04T02:25:29.603Z,7.12
2024-04-04T02:26:29.592Z,7.13
2024-04-04T02:27:29.581Z,7.12
2024-04-04T02:28:29.570Z,7.10
2024-04-04T02:29:29.553Z,7.08
2024-04-04T02:30:29.533Z,7.05
2024-04-04T02:31:29.553Z,7.01
2024-04-04T02:32:29.525Z,6.98
2024-04-04T02:33:29.498Z,6.96
2024-04-04T02:34:29.489Z,6.94
2024-04-04T02:35:29.489Z,6.92
2024-04-04T02:36:30.900Z,6.90
2024-04-04T02:37:29.480Z,6.87
2024-04-04T02:38:29.438Z,6.84
2024-04-04T02:39:29.425Z,6.83
2024-04-04T02:40:29.400Z,6.83
2024-04-04T02:41:29.430Z,6.83
2024-04-04T02:42:29.428Z,6.84
2024-04-04T02:43:29.390Z,6.84
2024-04-04T02:44:29.359Z,6.85
2024-04-04T02:45:29.360Z,6.86
2024-04-04T02:46:29.328Z,6.89
2024-04-04T02:47:29.450Z,6.91
2024-04-04T02:48:29.338Z,6.93
2024-04-04T02:49:29.305Z,6.93
2024-04-04T02:50:29.286Z,6.94
2024-04-04T02:51:29.272Z,6.95
2024-04-04T02:52:29.255Z,6.97
2024-04-04T02:53:29.475Z,6.99
2024-04-04T02:54:29.256Z,7.01
2024-04-04T02:55:29.237Z,7.01
2024-04-04T02:56:29.198Z,7.00
2024-04-04T02:57:29.200Z,6.99
2024-04-04T02:58:29.199Z,6.96
2024-04-04T02:59:29.178Z,6.94
2024-04-04T03:00:29.282Z,6.90
2024-04-04T03:01:29.139Z,6.88
2024-04-04T03:02:29.165Z,6.87
2024-04-04T03:03:29.126Z,6.84
2024-04-04T03:04:29.107Z,6.81
2024-04-04T03:05:29.121Z,6.78
2024-04-04T03:06:29.072Z,6.76
2024-04-04T03:07:29.058Z,6.74
2024-04-04T03:08:29.058Z,6.75
2024-04-04T03:09:29.036Z,6.76
2024-04-04T03:10:29.035Z,6.77
2024-04-04T03:11:29.072Z,6.77
2024-04-04T03:12:30.469Z,6.76
2024-04-04T03:13:29.000Z,6.74
2024-04-04T03:14:28.982Z,6.72
2024-04-04T03:15:28.962Z,6.70
2024-04-04T03:16:28.956Z,6.68
2024-04-04T03:17:28.999Z,6.68
2024-04-04T03:18:28.961Z,6.68
2024-04-04T03:19:28.915Z,6.68
2024-04-04T03:20:28.914Z,6.68
2024-04-04T03:21:28.885Z,6.68
2024-04-04T03:22:29.396Z,6.70
2024-04-04T03:23:28.879Z,6.71
2024-04-04T03:24:28.886Z,6.71
2024-04-04T03:25:28.849Z,6.72
2024-04-04T03:26:28.829Z,6.73
2024-04-04T03:27:28.839Z,6.75
2024-04-04T03:28:28.824Z,6.74
2024-04-04T03:29:28.781Z,6.73
2024-04-04T03:30:28.800Z,6.73
2024-04-04T03:31:28.753Z,6.73
2024-04-04T03:32:28.750Z,6.73
2024-04-04T03:33:28.730Z,6.72
2024-04-04T03:34:28.731Z,6.72
2024-04-04T03:35:28.701Z,6.73
2024-04-04T03:36:28.724Z,6.74
2024-04-04T03:37:28.678Z,6.75
2024-04-04T03:38:28.677Z,6.74
2024-04-04T03:39:28.692Z,6.74
2024-04-04T03:40:28.652Z,6.75
2024-04-04T03:41:28.641Z,6.74
2024-04-04T03:42:28.620Z,6.73
2024-04-04T03:43:28.597Z,6.71
2024-04-04T03:44:28.603Z,6.68
2024-04-04T03:45:28.615Z,6.67
2024-04-04T03:46:28.580Z,6.66
2024-04-04T03:47:28.576Z,6.66
2024-04-04T03:48:28.536Z,6.66
2024-04-04T03:49:28.534Z,6.65
2024-04-04T03:50:28.529Z,6.64
2024-04-04T03:51:28.528Z,6.63
2024-04-04T03:52:28.500Z,6.63
2024-04-04T03:53:28.474Z,6.64
2024-04-04T03:54:28.474Z,6.64
2024-04-04T03:55:28.459Z,6.65
2024-04-04T03:56:28.486Z,6.65
2024-04-04T03:57:28.422Z,6.64
2024-04-04T03:58:28.423Z,6.62
2024-04-04T03:59:28.418Z,6.59
2024-04-04T04:00:28.391Z,6.55
2024-04-04T04:01:28.374Z,6.51
2024-04-04T04:02:28.434Z,6.47
2024-04-04T04:03:28.351Z,6.44
2024-04-04T04:04:28.344Z,6.42
2024-04-04T04:05:28.328Z,6.40
2024-04-04T04:06:28.326Z,6.37
2024-04-04T04:07:28.326Z,6.34
2024-04-04T04:08:28.304Z,6.30
2024-04-04T04:09:28.290Z,6.28
2024-04-04T04:10:28.262Z,6.28
2024-04-04T04:11:28.268Z,6.28
2024-04-04T04:12:28.283Z,6.27
2024-04-04T04:13:28.257Z,6.28
2024-04-04T04:14:28.213Z,6.29
2024-04-04T04:15:28.197Z,6.30
2024-04-04T04:16:28.191Z,6.31
2024-04-04T04:17:28.203Z,6.32
2024-04-04T04:18:28.177Z,6.32
2024-04-04T04:19:28.223Z,6.33
2024-04-04T04:20:28.148Z,6.34
2024-04-04T04:21:28.121Z,6.35
2024-04-04T04:22:28.108Z,6.37
2024-04-04T04:23:28.100Z,6.38
2024-04-04T04:24:28.085Z,6.39
2024-04-04T04:25:28.105Z,6.39
2024-04-04T04:26:29.185Z,6.38
2024-04-04T04:27:28.041Z,6.37
2024-04-04T04:28:28.041Z,6.36
2024-04-04T04:29:28.034Z,6.34
2024-04-04T04:30:28.013Z,6.33
2024-04-04T04:31:28.017Z,6.33
2024-04-04T04:32:27.996Z,6.35
2024-04-04T04:33:27.960Z,6.38
2024-04-04T04:34:27.951Z,6.40
2024-04-04T04:35:27.947Z,6.41
2024-04-04T04:36:27.927Z,6.43
2024-04-04T04:37:27.939Z,6.46
2024-04-04T04:38:27.902Z,6.49
2024-04-04T04:39:27.900Z,6.51
2024-04-04T04:40:27.885Z,6.54
2024-04-04T04:41:27.866Z,6.59
2024-04-04T04:42:27.856Z,6.65
2024-04-04T04:43:27.844Z,6.71
2024-04-04T04:44:27.832Z,6.76
2024-04-04T04:45:27.822Z,6.79
2024-04-04T04:46:27.797Z,6.82
2024-04-04T04:47:27.808Z,6.86
2024-04-04T04:48:27.801Z,6.91
2024-04-04T04:49:27.773Z,6.96
2024-04-04T04:50:27.749Z,7.02
2024-04-04T04:51:27.749Z,7.08
2024-04-04T04:52:27.740Z,7.13
2024-04-04T04:53:27.706Z,7.17
2024-04-04T04:54:27.735Z,7.22
2024-04-04T04:55:27.676Z,7.27
2024-04-04T04:56:27.682Z,7.32
2024-04-04T04:57:27.665Z,7.36
2024-04-04T04:58:27.691Z,7.40
2024-04-04T04:59:27.637Z,7.43
2024-04-04T05:00:27.646Z,7.44
2024-04-04T05:01:27.612Z,7.44
2024-04-04T05:02:27.638Z,7.43
2024-04-04T05:03:27.612Z,7.41
2024-04-04T05:04:27.608Z,7.41
2024-04-04T05:05:27.579Z,7.42
2024-04-04T05:06:27.559Z,7.43
2024-04-04T05:07:27.538Z,7.43
2024-04-04T05:08:27.527Z,7.41
2024-04-04T05:09:27.534Z,7.39
2024-04-04T05:10:27.523Z,7.36
2024-04-04T05:11:27.547Z,7.32
2024-04-04T05:12:27.473Z,7.29
2024-04-04T05:13:27.472Z,7.26
2024-04-04T05:14:27.444Z,7.24
2024-04-04T05:15:27.448Z,7.24
2024-04-04T05:16:27.432Z,7.24
2024-04-04T05:17:27.446Z,7.24
2024-04-04T05:18:27.403Z,7.22
2024-04-04T05:19:27.396Z,7.21
2024-04-04T05:20:27.379Z,7.20
2024-04-04T05:21:27.360Z,7.20
2024-04-04T05:22:27.369Z,7.22
2024-04-04T05:23:27.336Z,7.24
2024-04-04T05:24:27.324Z,7.26
2024-04-04T05:25:27.437Z,7.26
2024-04-04T05:26:27.295Z,7.25
2024-04-04T05:27:27.274Z,7.24
2024-04-04T05:28:27.313Z,7.23
2024-04-04T05:29:27.258Z,7.23
2024-04-04T05:30:28.251Z,7.25
2024-04-04T05:31:27.221Z,7.30
2024-04-04T05:32:27.224Z,7.36
2024-04-04T05:33:27.208Z,7.41
2024-04-04T05:34:27.195Z,7.45
2024-04-04T05:35:27.179Z,7.47
2024-04-04T05:36:27.172Z,7.47
2024-04-04T05:37:27.166Z,7.46
2024-04-04T05:38:27.145Z,7.46
2024-04-04T05:39:27.162Z,7.45
2024-04-04T05:40:27.123Z,7.45
2024-04-04T05:41:27.099Z,7.46
2024-04-04T05:42:27.110Z,7.48
2024-04-04T05:43:27.077Z,7.50
2024-04-04T05:44:27.054Z,7.52
2024-04-04T05:45:27.112Z,7.53
2024-04-04T05:46:27.047Z,7.51
2024-04-04T05:47:27.086Z,7.48
2024-04-04T05:48:27.022Z,7.45
2024-04-04T05:49:26.988Z,7.42
2024-04-04T05:50:26.991Z,7.40
2024-04-04T05:51:26.983Z,7.39
2024-04-04T05:52:26.954Z,7.37
2024-04-04T05:53:26.936Z,7.36
2024-04-04T05:54:26.924Z,7.36
2024-04-04T05:55:27.016Z,7.36
2024-04-04T05:56:26.923Z,7.40
2024-04-04T05:57:26.981Z,7.44
2024-04-04T05:58:26.886Z,7.47
2024-04-04T05:59:26.858Z,7.49
2024-04-04T06:00:26.847Z,7.50
2024-04-04T06:01:27.650Z,7.52
2024-04-04T06:02:26.864Z,7.54
2024-04-04T06:03:26.833Z,7.55
2024-04-04T06:04:31.771Z,7.56
2024-04-04T06:05:26.790Z,7.57
2024-04-04T06:06:26.768Z,7.62
2024-04-04T06:07:26.795Z,7.69
2024-04-04T06:08:26.761Z,7.78
2024-04-04T06:09:26.743Z,7.90
2024-04-04T06:10:26.733Z,8.02
2024-04-04T06:11:26.708Z,8.14
2024-04-04T06:12:26.707Z,8.24
2024-04-04T06:13:26.739Z,8.35
2024-04-04T06:14:26.679Z,8.46
2024-04-04T06:15:26.654Z,8.56
2024-04-04T06:16:26.665Z,8.66
2024-04-04T06:17:26.637Z,8.76
2024-04-04T06:18:26.635Z,8.85
2024-04-04T06:19:26.638Z,8.94
2024-04-04T06:20:26.591Z,9.02
2024-04-04T06:21:26.575Z,9.07
2024-04-04T06:22:26.573Z,9.06
2024-04-04T06:23:26.562Z,9.02
2024-04-04T06:24:26.559Z,9.02
2024-04-04T06:25:26.550Z,9.08
2024-04-04T06:26:26.505Z,9.18
2024-04-04T06:27:26.527Z,9.29
2024-04-04T06:28:26.513Z,9.41
2024-04-04T06:29:26.480Z,9.52
2024-04-04T06:30:26.513Z,9.58
2024-04-04T06:31:26.459Z,9.59
2024-04-04T06:32:26.446Z,9.61
2024-04-04T06:33:26.439Z,9.68
2024-04-04T06:34:26.419Z,9.80
2024-04-04T06:35:26.404Z,9.92
2024-04-04T06:36:28.152Z,10.07
2024-04-04T06:37:26.393Z,10.20
2024-04-04T06:38:26.372Z,10.32
2024-04-04T06:39:26.346Z,10.44
2024-04-04T06:40:26.356Z,10.54
2024-04-04T06:41:26.321Z,10.57
2024-04-04T06:42:27.880Z,10.54
2024-04-04T06:43:26.303Z,10.52
2024-04-04T06:44:26.284Z,10.57
2024-04-04T06:45:26.283Z,10.67
2024-04-04T06:46:26.260Z,10.81
2024-04-04T06:47:26.300Z,10.91
2024-04-04T06:48:26.232Z,10.93
2024-04-04T06:49:26.212Z,10.89
2024-04-04T06:50:26.202Z,10.82
2024-04-04T06:51:26.198Z,10.74
2024-04-04T06:52:26.184Z,10.69
2024-04-04T06:53:26.200Z,10.72
2024-04-04T06:54:26.194Z,10.86
2024-04-04T06:55:26.136Z,11.03
2024-04-04T06:56:26.143Z,11.20
2024-04-04T06:57:26.128Z,11.39
2024-04-04T06:58:26.206Z,11.58
2024-04-04T06:59:26.107Z,11.73
2024-04-04T07:00:26.108Z,11.84
2024-04-04T07:01:26.068Z,11.96
2024-04-04T07:02:26.050Z,12.06
2024-04-04T07:03:26.050Z,12.16
2024-04-04T07:04:26.177Z,12.29
2024-04-04T07:05:26.015Z,12.44
2024-04-04T07:06:26.008Z,12.60
2024-04-04T07:07:25.985Z,12.76
2024-04-04T07:08:25.996Z,12.95
2024-04-04T07:09:25.963Z,13.10
2024-04-04T07:10:25.983Z,13.17
2024-04-04T07:11:25.939Z,13.24
2024-04-04T07:12:25.933Z,13.33
2024-04-04T07:13:25.911Z,13.44
2024-04-04T07:14:25.912Z,13.47
2024-04-04T07:15:25.890Z,13.35
2024-04-04T07:16:25.888Z,13.19
2024-04-04T07:17:25.859Z,13.09
2024-04-04T07:18:25.843Z,12.97
2024-04-04T07:19:25.837Z,12.79
2024-04-04T07:20:25.825Z,12.70
2024-04-04T07:21:25.851Z,12.68
2024-04-04T07:22:25.804Z,12.67
2024-04-04T07:23:25.794Z,12.76
2024-04-04T07:24:25.771Z,13.15
2024-04-04T07:25:25.766Z,13.71
2024-04-04T07:26:25.736Z,14.15
2024-04-04T07:27:25.776Z,14.46
2024-04-04T07:28:25.722Z,14.67
2024-04-04T07:29:25.730Z,14.86
2024-04-04T07:30:25.701Z,15.02
2024-04-04T07:31:25.697Z,15.16
2024-04-04T07:32:25.688Z,15.26
2024-04-04T07:33:25.679Z,15.45
2024-04-04T07:34:25.651Z,15.74
2024-04-04T07:35:25.653Z,16.01
2024-04-04T07:36:25.637Z,16.21
2024-04-04T07:37:25.653Z,16.39
2024-04-04T07:38:25.670Z,16.57
2024-04-04T07:39:25.602Z,16.65
2024-04-04T07:40:25.579Z,16.64
2024-04-04T07:41:25.567Z,16.57
2024-04-04T07:42:25.569Z,16.43
2024-04-04T07:43:25.542Z,16.37
2024-04-04T07:44:25.563Z,16.53
2024-04-04T07:45:25.528Z,16.79
2024-04-04T07:46:25.518Z,17.07
2024-04-04T07:47:25.522Z,17.15
2024-04-04T07:48:25.482Z,17.00
2024-04-04T07:49:25.476Z,16.60
2024-04-04T07:50:25.500Z,16.07
2024-04-04T07:51:25.456Z,15.49
2024-04-04T07:52:25.439Z,14.96
2024-04-04T07:53:25.420Z,14.56
2024-04-04T07:54:25.410Z,14.32
2024-04-04T07:55:25.438Z,14.12
2024-04-04T07:56:25.399Z,13.92
2024-04-04T07:57:25.384Z,13.76
2024-04-04T07:58:25.375Z,13.64
2024-04-04T07:59:25.394Z,13.57
2024-04-04T08:00:25.334Z,13.59
2024-04-04T08:01:25.355Z,13.77
2024-04-04T08:02:25.317Z,13.99
2024-04-04T08:03:25.296Z,14.11
2024-04-04T08:04:25.279Z,14.16
2024-04-04T08:05:25.287Z,14.26
2024-04-04T08:06:25.307Z,14.50
2024-04-04T08:07:25.270Z,14.79
2024-04-04T08:08:25.245Z,15.04
2024-04-04T08:09:25.251Z,15.17
2024-04-04T08:10:25.239Z,15.14
2024-04-04T08:11:25.204Z,15.04
2024-04-04T08:12:25.218Z,15.03
2024-04-04T08:13:25.179Z,15.07
2024-04-04T08:14:25.177Z,15.05
2024-04-04T08:15:25.179Z,15.02
2024-04-04T08:16:25.142Z,15.01
2024-04-04T08:17:25.140Z,14.95
2024-04-04T08:18:26.456Z,14.86
2024-04-04T08:19:25.144Z,14.79
2024-04-04T08:20:25.090Z,14.83
2024-04-04T08:21:25.087Z,15.14
2024-04-04T08:22:25.061Z,15.71
2024-04-04T08:23:25.070Z,16.31
2024-04-04T08:24:25.056Z,16.64
2024-04-04T08:25:25.081Z,16.60
2024-04-04T08:26:25.029Z,16.31
2024-04-04T08:27:25.009Z,15.87
2024-04-04T08:28:24.996Z,15.35
2024-04-04T08:29:25.022Z,14.86
2024-04-04T08:30:24.977Z,14.46
2024-04-04T08:31:24.962Z,14.13
2024-04-04T08:32:24.947Z,13.92
2024-04-04T08:33:24.948Z,13.81
2024-04-04T08:34:24.927Z,13.79
2024-04-04T08:35:25.034Z,13.83
2024-04-04T08:36:24.904Z,13.86
2024-04-04T08:37:24.889Z,13.86
2024-04-04T08:38:24.869Z,13.88
2024-04-04T08:39:24.853Z,13.91
2024-04-04T08:40:24.844Z,13.97
2024-04-04T08:41:24.887Z,13.97
2024-04-04T08:42:24.828Z,13.92
2024-04-04T08:43:24.809Z,13.80
2024-04-04T08:44:24.808Z,13.65
2024-04-04T08:45:24.880Z,13.52
2024-04-04T08:46:24.777Z,13.43
2024-04-04T08:47:24.785Z,13.37
2024-04-04T08:48:24.760Z,13.33
2024-04-04T08:49:24.732Z,13.29
2024-04-04T08:50:33.015Z,13.27
2024-04-04T08:51:24.713Z,13.26
2024-04-04T08:52:24.699Z,13.24
2024-04-04T08:53:24.708Z,13.23
2024-04-04T08:54:24.665Z,13.23
2024-04-04T08:55:24.646Z,13.23
2024-04-04T08:56:24.654Z,13.25
2024-04-04T08:57:24.634Z,13.27
2024-04-04T08:58:24.628Z,13.28
2024-04-04T08:59:24.652Z,13.31
2024-04-04T09:00:24.595Z,13.36
2024-04-04T09:01:30.330Z,13.41
2024-04-04T09:02:24.626Z,13.45
2024-04-04T09:03:24.588Z,13.53
2024-04-04T09:04:24.596Z,13.62
2024-04-04T09:05:24.604Z,13.74
2024-04-04T09:06:24.583Z,13.95
2024-04-04T09:07:24.495Z,14.26
2024-04-04T09:08:24.564Z,14.62
2024-04-04T09:09:24.580Z,14.94
2024-04-04T09:10:24.558Z,15.41
2024-04-04T09:11:24.533Z,16.10
2024-04-04T09:12:24.454Z,16.69
2024-04-04T09:13:24.453Z,16.99
2024-04-04T09:14:24.422Z,17.10
2024-04-04T09:15:24.444Z,17.09
2024-04-04T09:16:24.413Z,17.08
2024-04-04T09:17:24.382Z,17.13
2024-04-04T09:18:24.402Z,17.24
2024-04-04T09:19:24.391Z,17.22
2024-04-04T09:20:24.430Z,17.05
2024-04-04T09:21:24.340Z,16.72
2024-04-04T09:22:24.318Z,16.38
2024-04-04T09:23:24.452Z,16.15
2024-04-04T09:24:24.308Z,16.01
2024-04-04T09:25:24.505Z,15.93
2024-04-04T09:26:24.294Z,15.98
2024-04-04T09:27:24.268Z,16.13
2024-04-04T09:28:24.249Z,16.29
2024-04-04T09:29:24.250Z,16.39
2024-04-04T09:30:24.233Z,16.37
2024-04-04T09:31:24.200Z,16.27
2024-04-04T09:32:24.228Z,16.17
2024-04-04T09:33:24.181Z,16.06
2024-04-04T09:34:24.180Z,15.99
2024-04-04T09:35:24.157Z,16.04
2024-04-04T09:36:24.147Z,16.19
2024-04-04T09:37:24.136Z,16.37
2024-04-04T09:38:24.130Z,16.51
2024-04-04T09:39:24.109Z,16.54
2024-04-04T09:40:24.099Z,16.44
2024-04-04T09:41:24.080Z,16.27
2024-04-04T09:42:24.080Z,16.17
2024-04-04T09:43:24.097Z,16.10
2024-04-04T09:44:24.062Z,16.01
2024-04-04T09:45:24.047Z,15.96
2024-04-04T09:46:24.024Z,15.96
2024-04-04T09:47:24.015Z,15.99
2024-04-04T09:48:32.420Z,16.00
2024-04-04T09:49:24.088Z,16.00
2024-04-04T09:50:24.002Z,15.97
2024-04-04T09:51:23.961Z,15.94
2024-04-04T09:52:23.947Z,15.88
2024-04-04T09:53:23.945Z,15.79
2024-04-04T09:54:23.930Z,15.64
2024-04-04T09:55:23.939Z,15.47
2024-04-04T09:56:23.901Z,15.31
2024-04-04T09:57:23.876Z,15.16
2024-04-04T09:58:23.885Z,15.04
2024-04-04T09:59:23.860Z,14.93
2024-04-04T10:00:23.868Z,14.80
2024-04-04T10:01:23.857Z,14.67
2024-04-04T10:02:23.824Z,14.61
2024-04-04T10:03:23.816Z,14.61
2024-04-04T10:04:23.801Z,14.63
2024-04-04T10:05:23.811Z,14.62
2024-04-04T10:06:23.815Z,14.57
2024-04-04T10:07:23.763Z,14.53
2024-04-04T10:08:23.756Z,14.48
2024-04-04T10:09:23.735Z,14.45
2024-04-04T10:10:23.721Z,14.48
2024-04-04T10:11:23.731Z,14.57
2024-04-04T10:12:23.697Z,14.69
2024-04-04T10:13:23.700Z,14.90
2024-04-04T10:14:23.685Z,15.19
2024-04-04T10:15:23.663Z,15.53
2024-04-04T10:16:23.664Z,15.85
2024-04-04T10:17:23.634Z,16.18
2024-04-04T10:18:23.701Z,16.56
2024-04-04T10:19:23.608Z,16.92
2024-04-04T10:20:23.599Z,17.24
2024-04-04T10:21:23.611Z,17.44
2024-04-04T10:22:23.589Z,17.39
2024-04-04T10:23:23.585Z,17.23
2024-04-04T10:24:23.551Z,17.11
2024-04-04T10:25:23.566Z,17.10
2024-04-04T10:26:23.531Z,17.20
2024-04-04T10:27:23.571Z,17.33
2024-04-04T10:28:23.519Z,17.46
2024-04-04T10:29:30.874Z,17.69
2024-04-04T10:30:23.546Z,18.06
2024-04-04T10:31:23.511Z,18.42
2024-04-04T10:32:23.500Z,18.76
2024-04-04T10:33:23.474Z,19.11
2024-04-04T10:34:23.473Z,19.44
2024-04-04T10:35:23.457Z,19.68
2024-04-04T10:36:23.437Z,19.72
2024-04-04T10:37:23.404Z,19.60
2024-04-04T10:38:23.436Z,19.42
2024-04-04T10:39:23.388Z,19.20
2024-04-04T10:40:23.370Z,18.89
2024-04-04T10:41:23.353Z,18.48
2024-04-04T10:42:23.337Z,17.98
2024-04-04T10:43:23.371Z,17.42
2024-04-04T10:44:23.313Z,16.91
2024-04-04T10:45:23.306Z,16.47
2024-04-04T10:46:23.286Z,16.13
2024-04-04T10:47:23.287Z,15.93
2024-04-04T10:48:23.277Z,15.82
2024-04-04T10:49:23.289Z,15.79
2024-04-04T10:50:23.253Z,15.90
2024-04-04T10:51:23.227Z,16.13
2024-04-04T10:52:23.242Z,16.41
2024-04-04T10:53:23.212Z,16.69
2024-04-04T10:54:23.192Z,16.90
2024-04-04T10:55:23.211Z,17.16
2024-04-04T10:56:23.164Z,17.45
2024-04-04T10:57:23.155Z,17.65
2024-04-04T10:58:23.146Z,17.73
2024-04-04T10:59:23.133Z,17.69
2024-04-04T11:00:23.169Z,17.56
2024-04-04T11:01:23.133Z,17.37
2024-04-04T11:02:23.132Z,17.18
2024-04-04T11:03:23.092Z,17.01
2024-04-04T11:04:23.087Z,16.85
2024-04-04T11:05:23.100Z,16.79
2024-04-04T11:06:23.075Z,16.77
2024-04-04T11:07:23.036Z,16.74
2024-04-04T11:08:23.060Z,16.67
2024-04-04T11:09:23.013Z,16.57
2024-04-04T11:10:23.009Z,16.50
2024-04-04T11:11:23.004Z,16.39
2024-04-04T11:12:23.000Z,16.28
2024-04-04T11:13:22.963Z,16.17
2024-04-04T11:14:22.978Z,16.09
2024-04-04T11:15:22.938Z,16.03
2024-04-04T11:16:22.928Z,15.96
2024-04-04T11:17:22.919Z,15.83
2024-04-04T11:18:22.938Z,15.64
2024-04-04T11:19:22.890Z,15.42
2024-04-04T11:20:22.880Z,15.20
2024-04-04T11:21:22.868Z,15.02
2024-04-04T11:22:22.850Z,14.89
2024-04-04T11:23:22.856Z,14.79
2024-04-04T11:24:22.850Z,14.70
2024-04-04T11:25:22.825Z,14.58
2024-04-04T11:26:22.816Z,14.45
2024-04-04T11:27:22.781Z,14.35
2024-04-04T11:28:22.806Z,14.27
2024-04-04T11:29:22.753Z,14.21
2024-04-04T11:30:22.754Z,14.18
2024-04-04T11:31:22.736Z,14.17
2024-04-04T11:32:22.722Z,14.16
2024-04-04T11:33:22.706Z,14.11
2024-04-04T11:34:22.733Z,14.03
2024-04-04T11:35:22.691Z,13.96
2024-04-04T11:36:22.680Z,13.92
2024-04-04T11:37:22.671Z,13.91
2024-04-04T11:38:22.760Z,13.93
2024-04-04T11:39:22.634Z,13.95
2024-04-04T11:40:22.648Z,13.96
2024-04-04T11:41:22.611Z,13.98
2024-04-04T11:42:22.604Z,13.98
2024-04-04T11:43:22.645Z,13.96
2024-04-04T11:44:22.620Z,13.96
2024-04-04T11:45:22.591Z,13.95
2024-04-04T11:46:22.543Z,13.94
2024-04-04T11:47:22.554Z,13.94
2024-04-04T11:48:22.513Z,13.93
2024-04-04T11:49:22.555Z,13.89
2024-04-04T11:50:22.513Z,13.86
2024-04-04T11:51:22.504Z,13.84
2024-04-04T11:52:22.469Z,13.85
2024-04-04T11:53:22.461Z,13.86
2024-04-04T11:54:22.500Z,13.87
2024-04-04T11:55:22.467Z,13.89
2024-04-04T11:56:22.425Z,13.91
2024-04-04T11:57:22.424Z,13.95
2024-04-04T11:58:22.383Z,13.98
2024-04-04T11:59:22.377Z,14.02
2024-04-04T12:00:22.382Z,14.05
2024-04-04T12:01:22.358Z,14.06
2024-04-04T12:02:22.376Z,14.04
2024-04-04T12:03:22.330Z,14.03
2024-04-04T12:04:22.309Z,14.05
2024-04-04T12:05:22.319Z,14.10
2024-04-04T12:06:22.292Z,14.15
2024-04-04T12:07:22.278Z,14.19
2024-04-04T12:08:29.505Z,14.22
2024-04-04T12:09:22.259Z,14.27
2024-04-04T12:10:22.240Z,14.32
2024-04-04T12:11:22.224Z,14.38
2024-04-04T12:12:22.211Z,14.41
2024-04-04T12:13:22.210Z,14.45
2024-04-04T12:14:22.202Z,14.51
2024-04-04T12:15:22.184Z,14.53
2024-04-04T12:16:22.178Z,14.52
2024-04-04T12:17:22.156Z,14.47
2024-04-04T12:18:22.135Z,14.43
2024-04-04T12:19:22.132Z,14.41
2024-04-04T12:20:22.116Z,14.38
2024-04-04T12:21:22.113Z,14.34
2024-04-04T12:22:22.117Z,14.30
2024-04-04T12:23:22.088Z,14.26
2024-04-04T12:24:22.095Z,14.25
2024-04-04T12:25:22.054Z,14.25
2024-04-04T12:26:22.037Z,14.23
2024-04-04T12:27:22.027Z,14.21
2024-04-04T12:28:22.007Z,14.23
2024-04-04T12:29:22.003Z,14.25
2024-04-04T12:30:22.019Z,14.30
2024-04-04T12:31:21.975Z,14.36
2024-04-04T12:32:21.967Z,14.40
2024-04-04T12:33:21.941Z,14.41
2024-04-04T12:34:21.938Z,14.43
2024-04-04T12:35:21.930Z,14.43
2024-04-04T12:36:21.947Z,14.40
2024-04-04T12:37:21.912Z,14.39
2024-04-04T12:38:21.879Z,14.41
2024-04-04T12:39:21.871Z,14.43
2024-04-04T12:40:21.978Z,14.40
2024-04-04T12:41:21.872Z,14.35
2024-04-04T12:42:21.866Z,14.31
2024-04-04T12:43:21.829Z,14.28
2024-04-04T12:44:21.810Z,14.28
2024-04-04T12:45:21.790Z,14.29
2024-04-04T12:46:21.781Z,14.29
2024-04-04T12:47:21.798Z,14.26
2024-04-04T12:48:21.753Z,14.23
2024-04-04T12:49:21.817Z,14.18
2024-04-04T12:50:21.738Z,14.12
2024-04-04T12:51:21.712Z,14.05
2024-04-04T12:52:21.711Z,14.00
2024-04-04T12:53:21.715Z,13.99
2024-04-04T12:54:23.300Z,13.99
2024-04-04T12:55:21.676Z,14.01
2024-04-04T12:56:21.649Z,13.98
2024-04-04T12:57:21.647Z,13.93
2024-04-04T12:58:21.658Z,13.90
2024-04-04T12:59:21.628Z,13.89
2024-04-04T13:00:21.603Z,13.88
2024-04-04T13:01:21.584Z,13.87
2024-04-04T13:02:21.602Z,13.89
2024-04-04T13:03:21.558Z,13.94
2024-04-04T13:04:21.574Z,14.00
2024-04-04T13:05:21.540Z,14.04